sensor_id;sensor_type;location;lat;lon;timestamp;P1;durP1;ratioP1;P2;durP2;ratioP2
7410;SDS011;3747;48.628;9.058;2024-03-22T00:00:11;12.50;;;10.20;;
7410;SDS011;3747;48.628;9.058;2024-03-22T00:02:39;14.50;;;10.40;;
7410;SDS011;3747;48.628;9.058;2024-03-22T00:05:04;14.03;;;10.57;;
7410;SDS011;3747;48.628;9.058;2024-03-22T00:07:32;11.30;;;9.80;;
7410;SDS011;3747;48.628;9.058;2024-03-22T00:09:58;14.23;;;10.47;;
7410;SDS011;3747;48.628;9.058;2024-03-22T00:12:25;15.53;;;10.47;;
7410;SDS011;3747;48.628;9.058;2024-03-22T00:14:51;14.80;;;11.33;;
7410;SDS011;3747;48.628;9.058;2024-03-22T00:17:19;16.27;;;11.40;;
7410;SDS011;3747;48.628;9.058;2024-03-22T00:19:45;15.90;;;11.40;;
7410;SDS011;3747;48.628;9.058;2024-03-22T00:22:12;17.40;;;12.20;;
7410;SDS011;3747;48.628;9.058;2024-03-22T00:24:39;15.73;;;11.33;;
7410;SDS011;3747;48.628;9.058;2024-03-22T00:27:05;14.60;;;11.00;;
7410;SDS011;3747;48.628;9.058;2024-03-22T00:29:31;12.60;;;11.23;;
7410;SDS011;3747;48.628;9.058;2024-03-22T00:31:58;17.07;;;11.10;;
7410;SDS011;3747;48.628;9.058;2024-03-22T00:34:24;17.83;;;11.33;;
7410;SDS011;3747;48.628;9.058;2024-03-22T00:36:51;14.83;;;11.83;;
7410;SDS011;3747;48.628;9.058;2024-03-22T00:39:17;16.03;;;11.13;;
7410;SDS011;3747;48.628;9.058;2024-03-22T00:41:45;12.77;;;10.87;;
7410;SDS011;3747;48.628;9.058;2024-03-22T00:44:10;11.77;;;10.53;;
7410;SDS011;3747;48.628;9.058;2024-03-22T00:46:37;16.03;;;10.73;;
7410;SDS011;3747;48.628;9.058;2024-03-22T00:49:03;13.67;;;10.63;;
7410;SDS011;3747;48.628;9.058;2024-03-22T00:51:29;16.33;;;11.93;;
7410;SDS011;3747;48.628;9.058;2024-03-22T00:53:55;14.23;;;11.10;;
7410;SDS011;3747;48.628;9.058;2024-03-22T00:56:22;13.90;;;10.57;;
7410;SDS011;3747;48.628;9.058;2024-03-22T00:58:49;14.13;;;10.70;;
7410;SDS011;3747;48.628;9.058;2024-03-22T01:01:15;14.37;;;11.83;;
7410;SDS011;3747;48.628;9.058;2024-03-22T01:03:41;14.47;;;10.60;;
7410;SDS011;3747;48.628;9.058;2024-03-22T01:06:08;14.60;;;11.00;;
7410;SDS011;3747;48.628;9.058;2024-03-22T01:08:33;13.73;;;10.87;;
7410;SDS011;3747;48.628;9.058;2024-03-22T01:11:00;15.20;;;11.37;;
7410;SDS011;3747;48.628;9.058;2024-03-22T01:13:26;14.63;;;11.53;;
7410;SDS011;3747;48.628;9.058;2024-03-22T01:15:54;15.67;;;12.37;;
7410;SDS011;3747;48.628;9.058;2024-03-22T01:18:20;18.30;;;10.47;;
7410;SDS011;3747;48.628;9.058;2024-03-22T01:20:47;14.67;;;10.83;;
7410;SDS011;3747;48.628;9.058;2024-03-22T01:23:12;12.40;;;9.63;;
7410;SDS011;3747;48.628;9.058;2024-03-22T01:25:39;14.03;;;10.40;;
7410;SDS011;3747;48.628;9.058;2024-03-22T01:28:05;16.80;;;10.03;;
7410;SDS011;3747;48.628;9.058;2024-03-22T01:30:32;13.37;;;10.20;;
7410;SDS011;3747;48.628;9.058;2024-03-22T01:36:22;14.70;;;9.77;;
7410;SDS011;3747;48.628;9.058;2024-03-22T01:38:48;14.87;;;10.40;;
7410;SDS011;3747;48.628;9.058;2024-03-22T01:41:14;20.50;;;11.67;;
7410;SDS011;3747;48.628;9.058;2024-03-22T01:43:41;19.80;;;12.80;;
7410;SDS011;3747;48.628;9.058;2024-03-22T01:46:07;19.53;;;12.30;;
7410;SDS011;3747;48.628;9.058;2024-03-22T01:48:33;17.63;;;12.93;;
7410;SDS011;3747;48.628;9.058;2024-03-22T01:51:00;21.10;;;13.13;;
7410;SDS011;3747;48.628;9.058;2024-03-22T01:53:28;15.50;;;11.50;;
7410;SDS011;3747;48.628;9.058;2024-03-22T01:55:55;16.67;;;11.23;;
7410;SDS011;3747;48.628;9.058;2024-03-22T01:58:20;15.87;;;12.30;;
7410;SDS011;3747;48.628;9.058;2024-03-22T02:00:47;16.97;;;12.30;;
7410;SDS011;3747;48.628;9.058;2024-03-22T02:03:14;21.77;;;13.30;;
7410;SDS011;3747;48.628;9.058;2024-03-22T02:05:40;22.40;;;14.70;;
7410;SDS011;3747;48.628;9.058;2024-03-22T02:08:06;21.40;;;13.93;;
7410;SDS011;3747;48.628;9.058;2024-03-22T02:10:34;26.40;;;15.13;;
7410;SDS011;3747;48.628;9.058;2024-03-22T02:13:00;21.60;;;15.33;;
7410;SDS011;3747;48.628;9.058;2024-03-22T02:15:27;21.33;;;14.40;;
7410;SDS011;3747;48.628;9.058;2024-03-22T02:17:53;19.20;;;13.83;;
7410;SDS011;3747;48.628;9.058;2024-03-22T02:20:19;20.13;;;14.03;;
7410;SDS011;3747;48.628;9.058;2024-03-22T02:22:45;19.47;;;13.87;;
7410;SDS011;3747;48.628;9.058;2024-03-22T02:25:13;20.47;;;14.60;;
7410;SDS011;3747;48.628;9.058;2024-03-22T02:27:39;18.70;;;13.30;;
7410;SDS011;3747;48.628;9.058;2024-03-22T02:30:06;19.47;;;14.10;;
7410;SDS011;3747;48.628;9.058;2024-03-22T02:32:33;22.07;;;14.43;;
7410;SDS011;3747;48.628;9.058;2024-03-22T02:34:59;20.57;;;14.87;;
7410;SDS011;3747;48.628;9.058;2024-03-22T02:37:25;20.53;;;14.23;;
7410;SDS011;3747;48.628;9.058;2024-03-22T02:39:53;20.23;;;14.37;;
7410;SDS011;3747;48.628;9.058;2024-03-22T02:42:20;24.03;;;15.57;;
7410;SDS011;3747;48.628;9.058;2024-03-22T02:44:46;25.27;;;16.03;;
7410;SDS011;3747;48.628;9.058;2024-03-22T02:47:12;26.40;;;15.73;;
7410;SDS011;3747;48.628;9.058;2024-03-22T02:49:40;29.00;;;17.80;;
7410;SDS011;3747;48.628;9.058;2024-03-22T02:52:06;28.10;;;18.27;;
7410;SDS011;3747;48.628;9.058;2024-03-22T02:54:33;30.57;;;18.27;;
7410;SDS011;3747;48.628;9.058;2024-03-22T02:56:59;30.73;;;17.80;;
7410;SDS011;3747;48.628;9.058;2024-03-22T02:59:28;28.73;;;17.63;;
7410;SDS011;3747;48.628;9.058;2024-03-22T03:01:53;25.40;;;15.83;;
7410;SDS011;3747;48.628;9.058;2024-03-22T03:04:20;26.17;;;16.17;;
7410;SDS011;3747;48.628;9.058;2024-03-22T03:06:46;23.23;;;15.50;;
7410;SDS011;3747;48.628;9.058;2024-03-22T03:09:12;27.83;;;19.00;;
7410;SDS011;3747;48.628;9.058;2024-03-22T03:11:38;29.17;;;18.30;;
7410;SDS011;3747;48.628;9.058;2024-03-22T03:14:06;25.23;;;16.93;;
7410;SDS011;3747;48.628;9.058;2024-03-22T03:16:33;23.77;;;16.83;;
7410;SDS011;3747;48.628;9.058;2024-03-22T03:19:00;26.87;;;16.47;;
7410;SDS011;3747;48.628;9.058;2024-03-22T03:21:26;23.87;;;16.33;;
7410;SDS011;3747;48.628;9.058;2024-03-22T03:23:52;22.77;;;16.00;;
7410;SDS011;3747;48.628;9.058;2024-03-22T03:26:19;24.60;;;16.17;;
7410;SDS011;3747;48.628;9.058;2024-03-22T03:28:44;25.20;;;16.23;;
7410;SDS011;3747;48.628;9.058;2024-03-22T03:31:11;23.30;;;15.67;;
7410;SDS011;3747;48.628;9.058;2024-03-22T03:33:38;20.23;;;14.83;;
7410;SDS011;3747;48.628;9.058;2024-03-22T03:36:05;25.47;;;16.37;;
7410;SDS011;3747;48.628;9.058;2024-03-22T03:38:30;20.53;;;15.67;;
7410;SDS011;3747;48.628;9.058;2024-03-22T03:40:57;25.73;;;16.13;;
7410;SDS011;3747;48.628;9.058;2024-03-22T03:43:23;21.43;;;15.23;;
7410;SDS011;3747;48.628;9.058;2024-03-22T03:45:49;20.93;;;14.57;;
7410;SDS011;3747;48.628;9.058;2024-03-22T03:48:15;21.73;;;16.13;;
7410;SDS011;3747;48.628;9.058;2024-03-22T03:50:51;21.03;;;15.60;;
7410;SDS011;3747;48.628;9.058;2024-03-22T03:53:17;23.40;;;14.57;;
7410;SDS011;3747;48.628;9.058;2024-03-22T03:55:44;16.33;;;13.10;;
7410;SDS011;3747;48.628;9.058;2024-03-22T03:58:10;18.40;;;13.87;;
7410;SDS011;3747;48.628;9.058;2024-03-22T04:00:37;19.13;;;12.93;;
7410;SDS011;3747;48.628;9.058;2024-03-22T04:03:02;18.10;;;13.90;;
7410;SDS011;3747;48.628;9.058;2024-03-22T04:05:29;18.70;;;12.77;;
7410;SDS011;3747;48.628;9.058;2024-03-22T04:07:56;18.47;;;13.50;;
7410;SDS011;3747;48.628;9.058;2024-03-22T04:10:23;19.27;;;13.20;;
7410;SDS011;3747;48.628;9.058;2024-03-22T04:12:48;20.20;;;13.87;;
7410;SDS011;3747;48.628;9.058;2024-03-22T04:15:15;26.20;;;17.97;;
7410;SDS011;3747;48.628;9.058;2024-03-22T04:17:41;17.80;;;12.70;;
7410;SDS011;3747;48.628;9.058;2024-03-22T04:20:08;16.90;;;12.90;;
7410;SDS011;3747;48.628;9.058;2024-03-22T04:22:36;15.57;;;12.03;;
7410;SDS011;3747;48.628;9.058;2024-03-22T04:25:04;15.90;;;12.03;;
7410;SDS011;3747;48.628;9.058;2024-03-22T04:27:31;19.27;;;11.87;;
7410;SDS011;3747;48.628;9.058;2024-03-22T04:29:58;17.30;;;12.77;;
7410;SDS011;3747;48.628;9.058;2024-03-22T04:32:23;20.23;;;13.20;;
7410;SDS011;3747;48.628;9.058;2024-03-22T04:34:50;17.77;;;11.93;;
7410;SDS011;3747;48.628;9.058;2024-03-22T04:37:16;16.53;;;11.90;;
7410;SDS011;3747;48.628;9.058;2024-03-22T04:39:45;14.00;;;11.07;;
7410;SDS011;3747;48.628;9.058;2024-03-22T04:42:13;17.73;;;11.60;;
7410;SDS011;3747;48.628;9.058;2024-03-22T04:44:41;16.17;;;12.23;;
7410;SDS011;3747;48.628;9.058;2024-03-22T04:47:07;14.90;;;12.07;;
7410;SDS011;3747;48.628;9.058;2024-03-22T04:49:33;15.40;;;11.80;;
7410;SDS011;3747;48.628;9.058;2024-03-22T04:52:00;14.73;;;11.67;;
7410;SDS011;3747;48.628;9.058;2024-03-22T04:54:25;17.30;;;12.70;;
7410;SDS011;3747;48.628;9.058;2024-03-22T04:56:52;14.67;;;12.30;;
7410;SDS011;3747;48.628;9.058;2024-03-22T04:59:20;14.43;;;11.80;;
7410;SDS011;3747;48.628;9.058;2024-03-22T05:01:46;16.20;;;11.17;;
7410;SDS011;3747;48.628;9.058;2024-03-22T05:04:12;14.10;;;11.53;;
7410;SDS011;3747;48.628;9.058;2024-03-22T05:06:38;14.80;;;11.10;;
7410;SDS011;3747;48.628;9.058;2024-03-22T05:09:05;15.70;;;11.97;;
7410;SDS011;3747;48.628;9.058;2024-03-22T05:11:31;17.80;;;11.90;;
7410;SDS011;3747;48.628;9.058;2024-03-22T05:13:57;17.70;;;13.10;;
7410;SDS011;3747;48.628;9.058;2024-03-22T05:16:24;17.37;;;13.17;;
7410;SDS011;3747;48.628;9.058;2024-03-22T05:18:51;17.27;;;11.90;;
7410;SDS011;3747;48.628;9.058;2024-03-22T05:21:17;16.73;;;11.53;;
7410;SDS011;3747;48.628;9.058;2024-03-22T05:23:43;15.57;;;12.60;;
7410;SDS011;3747;48.628;9.058;2024-03-22T05:26:09;17.03;;;11.93;;
7410;SDS011;3747;48.628;9.058;2024-03-22T05:28:36;18.03;;;12.13;;
7410;SDS011;3747;48.628;9.058;2024-03-22T05:31:01;17.63;;;11.80;;
7410;SDS011;3747;48.628;9.058;2024-03-22T05:33:29;17.23;;;11.83;;
7410;SDS011;3747;48.628;9.058;2024-03-22T05:35:55;15.53;;;11.70;;
7410;SDS011;3747;48.628;9.058;2024-03-22T05:38:22;16.90;;;11.57;;
7410;SDS011;3747;48.628;9.058;2024-03-22T05:40:47;15.37;;;12.07;;
7410;SDS011;3747;48.628;9.058;2024-03-22T05:43:14;29.93;;;19.37;;
7410;SDS011;3747;48.628;9.058;2024-03-22T05:45:40;22.87;;;15.83;;
7410;SDS011;3747;48.628;9.058;2024-03-22T05:48:07;23.77;;;16.13;;
7410;SDS011;3747;48.628;9.058;2024-03-22T05:50:34;19.30;;;13.90;;
7410;SDS011;3747;48.628;9.058;2024-03-22T05:53:00;19.90;;;13.50;;
7410;SDS011;3747;48.628;9.058;2024-03-22T05:55:26;17.60;;;14.20;;
7410;SDS011;3747;48.628;9.058;2024-03-22T05:57:56;19.03;;;13.13;;
7410;SDS011;3747;48.628;9.058;2024-03-22T06:00:21;22.17;;;14.77;;
7410;SDS011;3747;48.628;9.058;2024-03-22T06:02:48;20.87;;;13.03;;
7410;SDS011;3747;48.628;9.058;2024-03-22T06:05:14;19.33;;;13.97;;
7410;SDS011;3747;48.628;9.058;2024-03-22T06:07:43;19.53;;;14.33;;
7410;SDS011;3747;48.628;9.058;2024-03-22T06:10:11;18.37;;;13.50;;
7410;SDS011;3747;48.628;9.058;2024-03-22T06:12:37;18.60;;;12.13;;
7410;SDS011;3747;48.628;9.058;2024-03-22T06:15:03;22.47;;;11.77;;
7410;SDS011;3747;48.628;9.058;2024-03-22T06:17:31;18.93;;;11.33;;
7410;SDS011;3747;48.628;9.058;2024-03-22T06:19:58;17.17;;;11.73;;
7410;SDS011;3747;48.628;9.058;2024-03-22T06:22:30;18.60;;;11.47;;
7410;SDS011;3747;48.628;9.058;2024-03-22T06:24:57;16.47;;;11.90;;
7410;SDS011;3747;48.628;9.058;2024-03-22T06:27:24;16.80;;;11.23;;
7410;SDS011;3747;48.628;9.058;2024-03-22T06:29:50;19.63;;;11.83;;
7410;SDS011;3747;48.628;9.058;2024-03-22T06:32:16;18.07;;;11.33;;
7410;SDS011;3747;48.628;9.058;2024-03-22T06:34:42;14.30;;;11.17;;
7410;SDS011;3747;48.628;9.058;2024-03-22T06:37:09;15.67;;;11.97;;
7410;SDS011;3747;48.628;9.058;2024-03-22T06:39:35;17.27;;;11.57;;
7410;SDS011;3747;48.628;9.058;2024-03-22T06:42:03;14.40;;;10.97;;
7410;SDS011;3747;48.628;9.058;2024-03-22T06:44:29;14.07;;;10.40;;
7410;SDS011;3747;48.628;9.058;2024-03-22T06:46:56;15.23;;;11.17;;
7410;SDS011;3747;48.628;9.058;2024-03-22T06:49:22;16.70;;;11.20;;
7410;SDS011;3747;48.628;9.058;2024-03-22T06:51:49;16.30;;;11.03;;
7410;SDS011;3747;48.628;9.058;2024-03-22T06:54:14;13.30;;;10.27;;
7410;SDS011;3747;48.628;9.058;2024-03-22T06:56:41;13.67;;;9.77;;
7410;SDS011;3747;48.628;9.058;2024-03-22T06:59:08;12.20;;;10.07;;
7410;SDS011;3747;48.628;9.058;2024-03-22T07:01:35;15.00;;;9.07;;
7410;SDS011;3747;48.628;9.058;2024-03-22T07:04:01;11.87;;;9.27;;
7410;SDS011;3747;48.628;9.058;2024-03-22T07:06:27;11.83;;;9.70;;
7410;SDS011;3747;48.628;9.058;2024-03-22T07:08:53;15.10;;;9.57;;
7410;SDS011;3747;48.628;9.058;2024-03-22T07:11:20;12.10;;;8.93;;
7410;SDS011;3747;48.628;9.058;2024-03-22T07:13:47;11.73;;;9.53;;
7410;SDS011;3747;48.628;9.058;2024-03-22T07:16:15;13.43;;;9.67;;
7410;SDS011;3747;48.628;9.058;2024-03-22T07:18:41;18.13;;;11.60;;
7410;SDS011;3747;48.628;9.058;2024-03-22T07:21:08;12.87;;;8.40;;
7410;SDS011;3747;48.628;9.058;2024-03-22T07:23:33;8.47;;;7.67;;
7410;SDS011;3747;48.628;9.058;2024-03-22T07:26:00;7.97;;;7.17;;
7410;SDS011;3747;48.628;9.058;2024-03-22T07:28:26;11.60;;;7.60;;
7410;SDS011;3747;48.628;9.058;2024-03-22T07:30:52;10.13;;;7.33;;
7410;SDS011;3747;48.628;9.058;2024-03-22T07:33:21;9.50;;;7.50;;
7410;SDS011;3747;48.628;9.058;2024-03-22T07:35:48;8.57;;;7.20;;
7410;SDS011;3747;48.628;9.058;2024-03-22T07:38:13;9.50;;;6.93;;
7410;SDS011;3747;48.628;9.058;2024-03-22T07:40:40;9.73;;;7.50;;
7410;SDS011;3747;48.628;9.058;2024-03-22T07:43:06;7.90;;;6.80;;
7410;SDS011;3747;48.628;9.058;2024-03-22T07:45:34;8.93;;;6.57;;
7410;SDS011;3747;48.628;9.058;2024-03-22T07:48:00;8.60;;;6.87;;
7410;SDS011;3747;48.628;9.058;2024-03-22T07:50:28;9.50;;;6.70;;
7410;SDS011;3747;48.628;9.058;2024-03-22T07:52:54;7.50;;;6.60;;
7410;SDS011;3747;48.628;9.058;2024-03-22T07:55:21;9.53;;;6.50;;
7410;SDS011;3747;48.628;9.058;2024-03-22T07:57:47;8.03;;;7.10;;
7410;SDS011;3747;48.628;9.058;2024-03-22T08:00:14;8.80;;;6.63;;
7410;SDS011;3747;48.628;9.058;2024-03-22T08:02:40;10.70;;;6.53;;
7410;SDS011;3747;48.628;9.058;2024-03-22T08:05:07;10.63;;;6.50;;
7410;SDS011;3747;48.628;9.058;2024-03-22T08:07:34;7.27;;;6.47;;
7410;SDS011;3747;48.628;9.058;2024-03-22T08:10:01;9.30;;;6.10;;
7410;SDS011;3747;48.628;9.058;2024-03-22T08:12:29;6.90;;;6.07;;
7410;SDS011;3747;48.628;9.058;2024-03-22T08:14:56;7.50;;;6.70;;
7410;SDS011;3747;48.628;9.058;2024-03-22T08:17:23;6.60;;;5.90;;
7410;SDS011;3747;48.628;9.058;2024-03-22T08:22:39;6.80;;;6.13;;
7410;SDS011;3747;48.628;9.058;2024-03-22T08:25:06;9.23;;;6.90;;
7410;SDS011;3747;48.628;9.058;2024-03-22T08:30:20;7.67;;;6.77;;
7410;SDS011;3747;48.628;9.058;2024-03-22T08:32:45;9.70;;;6.27;;
7410;SDS011;3747;48.628;9.058;2024-03-22T08:35:12;9.60;;;5.90;;
7410;SDS011;3747;48.628;9.058;2024-03-22T08:37:40;7.00;;;6.10;;
7410;SDS011;3747;48.628;9.058;2024-03-22T08:40:07;8.23;;;6.00;;
7410;SDS011;3747;48.628;9.058;2024-03-22T08:42:33;6.37;;;5.07;;
7410;SDS011;3747;48.628;9.058;2024-03-22T08:45:00;5.70;;;5.10;;
7410;SDS011;3747;48.628;9.058;2024-03-22T08:47:25;8.43;;;6.30;;
7410;SDS011;3747;48.628;9.058;2024-03-22T08:49:52;7.80;;;6.63;;
7410;SDS011;3747;48.628;9.058;2024-03-22T08:52:18;6.90;;;6.17;;
7410;SDS011;3747;48.628;9.058;2024-03-22T08:54:45;7.23;;;5.70;;
7410;SDS011;3747;48.628;9.058;2024-03-22T08:57:11;7.50;;;5.87;;
7410;SDS011;3747;48.628;9.058;2024-03-22T08:59:38;5.80;;;5.30;;
7410;SDS011;3747;48.628;9.058;2024-03-22T09:02:04;8.77;;;7.20;;
7410;SDS011;3747;48.628;9.058;2024-03-22T09:04:31;6.23;;;5.60;;
7410;SDS011;3747;48.628;9.058;2024-03-22T09:06:57;7.60;;;5.83;;
7410;SDS011;3747;48.628;9.058;2024-03-22T09:09:24;6.80;;;6.10;;
7410;SDS011;3747;48.628;9.058;2024-03-22T09:11:52;7.90;;;6.30;;
7410;SDS011;3747;48.628;9.058;2024-03-22T09:14:27;7.47;;;6.40;;
7410;SDS011;3747;48.628;9.058;2024-03-22T09:16:53;6.67;;;5.47;;
7410;SDS011;3747;48.628;9.058;2024-03-22T09:19:19;7.73;;;5.70;;
7410;SDS011;3747;48.628;9.058;2024-03-22T09:21:46;7.40;;;5.47;;
7410;SDS011;3747;48.628;9.058;2024-03-22T09:27:14;6.20;;;5.47;;
7410;SDS011;3747;48.628;9.058;2024-03-22T09:29:39;6.80;;;5.97;;
7410;SDS011;3747;48.628;9.058;2024-03-22T09:32:08;7.43;;;5.57;;
7410;SDS011;3747;48.628;9.058;2024-03-22T09:34:34;6.40;;;5.23;;
7410;SDS011;3747;48.628;9.058;2024-03-22T09:37:02;5.73;;;5.23;;
7410;SDS011;3747;48.628;9.058;2024-03-22T09:39:28;6.07;;;5.33;;
7410;SDS011;3747;48.628;9.058;2024-03-22T09:41:57;7.37;;;6.17;;
7410;SDS011;3747;48.628;9.058;2024-03-22T09:44:25;6.50;;;5.80;;
7410;SDS011;3747;48.628;9.058;2024-03-22T09:46:53;11.00;;;8.17;;
7410;SDS011;3747;48.628;9.058;2024-03-22T09:49:20;6.13;;;5.30;;
7410;SDS011;3747;48.628;9.058;2024-03-22T09:51:48;8.47;;;5.80;;
7410;SDS011;3747;48.628;9.058;2024-03-22T09:54:16;6.70;;;5.27;;
7410;SDS011;3747;48.628;9.058;2024-03-22T09:56:44;8.23;;;6.07;;
7410;SDS011;3747;48.628;9.058;2024-03-22T09:59:13;6.17;;;4.63;;
7410;SDS011;3747;48.628;9.058;2024-03-22T10:01:41;8.43;;;5.90;;
7410;SDS011;3747;48.628;9.058;2024-03-22T10:04:15;8.50;;;5.50;;
7410;SDS011;3747;48.628;9.058;2024-03-22T10:06:42;6.47;;;4.90;;
7410;SDS011;3747;48.628;9.058;2024-03-22T10:09:07;7.73;;;5.67;;
7410;SDS011;3747;48.628;9.058;2024-03-22T10:11:34;7.27;;;5.27;;
7410;SDS011;3747;48.628;9.058;2024-03-22T10:14:00;7.33;;;5.33;;
7410;SDS011;3747;48.628;9.058;2024-03-22T10:16:32;6.67;;;5.77;;
7410;SDS011;3747;48.628;9.058;2024-03-22T10:19:00;7.53;;;5.27;;
7410;SDS011;3747;48.628;9.058;2024-03-22T10:21:27;7.07;;;6.37;;
7410;SDS011;3747;48.628;9.058;2024-03-22T10:23:54;6.67;;;4.83;;
7410;SDS011;3747;48.628;9.058;2024-03-22T10:26:20;6.00;;;5.27;;
7410;SDS011;3747;48.628;9.058;2024-03-22T10:28:46;7.80;;;4.63;;
7410;SDS011;3747;48.628;9.058;2024-03-22T10:31:13;5.77;;;5.10;;
7410;SDS011;3747;48.628;9.058;2024-03-22T10:33:40;8.17;;;4.90;;
7410;SDS011;3747;48.628;9.058;2024-03-22T10:36:08;5.70;;;4.43;;
7410;SDS011;3747;48.628;9.058;2024-03-22T10:38:35;6.03;;;5.43;;
7410;SDS011;3747;48.628;9.058;2024-03-22T10:41:04;6.53;;;4.50;;
7410;SDS011;3747;48.628;9.058;2024-03-22T10:43:30;8.37;;;5.40;;
7410;SDS011;3747;48.628;9.058;2024-03-22T10:45:59;5.87;;;5.10;;
7410;SDS011;3747;48.628;9.058;2024-03-22T10:48:26;7.10;;;5.43;;
7410;SDS011;3747;48.628;9.058;2024-03-22T10:50:58;5.57;;;4.57;;
7410;SDS011;3747;48.628;9.058;2024-03-22T10:53:26;7.40;;;5.20;;
7410;SDS011;3747;48.628;9.058;2024-03-22T10:55:54;6.37;;;4.77;;
7410;SDS011;3747;48.628;9.058;2024-03-22T10:58:24;7.50;;;4.80;;
7410;SDS011;3747;48.628;9.058;2024-03-22T11:00:52;5.53;;;4.93;;
7410;SDS011;3747;48.628;9.058;2024-03-22T11:03:19;6.20;;;5.60;;
7410;SDS011;3747;48.628;9.058;2024-03-22T11:05:46;8.63;;;5.57;;
7410;SDS011;3747;48.628;9.058;2024-03-22T11:08:12;6.03;;;5.40;;
7410;SDS011;3747;48.628;9.058;2024-03-22T11:10:40;7.93;;;5.67;;
7410;SDS011;3747;48.628;9.058;2024-03-22T11:13:07;7.50;;;5.03;;
7410;SDS011;3747;48.628;9.058;2024-03-22T11:15:35;7.93;;;6.03;;
7410;SDS011;3747;48.628;9.058;2024-03-22T11:18:00;7.73;;;5.83;;
7410;SDS011;3747;48.628;9.058;2024-03-22T11:20:27;7.07;;;5.67;;
7410;SDS011;3747;48.628;9.058;2024-03-22T11:23:00;10.13;;;6.50;;
7410;SDS011;3747;48.628;9.058;2024-03-22T11:25:27;7.03;;;5.97;;
7410;SDS011;3747;48.628;9.058;2024-03-22T11:27:54;7.10;;;5.93;;
7410;SDS011;3747;48.628;9.058;2024-03-22T11:30:21;6.00;;;4.90;;
7410;SDS011;3747;48.628;9.058;2024-03-22T11:32:49;6.37;;;5.47;;
7410;SDS011;3747;48.628;9.058;2024-03-22T11:35:29;6.63;;;5.53;;
7410;SDS011;3747;48.628;9.058;2024-03-22T11:41:02;10.50;;;5.80;;
7410;SDS011;3747;48.628;9.058;2024-03-22T11:43:35;5.60;;;5.10;;
7410;SDS011;3747;48.628;9.058;2024-03-22T11:46:02;8.77;;;5.80;;
7410;SDS011;3747;48.628;9.058;2024-03-22T11:48:28;5.23;;;4.80;;
7410;SDS011;3747;48.628;9.058;2024-03-22T11:50:54;6.70;;;4.93;;
7410;SDS011;3747;48.628;9.058;2024-03-22T11:53:21;6.47;;;5.30;;
7410;SDS011;3747;48.628;9.058;2024-03-22T11:55:48;6.20;;;5.70;;
7410;SDS011;3747;48.628;9.058;2024-03-22T11:58:14;8.13;;;4.80;;
7410;SDS011;3747;48.628;9.058;2024-03-22T12:00:42;5.90;;;5.27;;
7410;SDS011;3747;48.628;9.058;2024-03-22T12:03:08;5.97;;;4.97;;
7410;SDS011;3747;48.628;9.058;2024-03-22T12:08:22;6.53;;;4.97;;
7410;SDS011;3747;48.628;9.058;2024-03-22T12:10:49;6.33;;;5.10;;
7410;SDS011;3747;48.628;9.058;2024-03-22T12:13:15;5.80;;;5.03;;
7410;SDS011;3747;48.628;9.058;2024-03-22T12:15:43;6.97;;;5.23;;
7410;SDS011;3747;48.628;9.058;2024-03-22T12:18:08;6.30;;;4.97;;
7410;SDS011;3747;48.628;9.058;2024-03-22T12:20:35;5.30;;;4.57;;
7410;SDS011;3747;48.628;9.058;2024-03-22T12:23:01;6.67;;;5.07;;
7410;SDS011;3747;48.628;9.058;2024-03-22T12:25:28;5.23;;;4.73;;
7410;SDS011;3747;48.628;9.058;2024-03-22T12:27:53;5.47;;;4.10;;
7410;SDS011;3747;48.628;9.058;2024-03-22T12:30:20;5.57;;;4.17;;
7410;SDS011;3747;48.628;9.058;2024-03-22T12:32:48;4.63;;;4.10;;
7410;SDS011;3747;48.628;9.058;2024-03-22T12:35:15;5.60;;;4.60;;
7410;SDS011;3747;48.628;9.058;2024-03-22T12:37:41;6.80;;;5.00;;
7410;SDS011;3747;48.628;9.058;2024-03-22T12:40:08;4.90;;;4.27;;
7410;SDS011;3747;48.628;9.058;2024-03-22T12:42:34;6.77;;;4.30;;
7410;SDS011;3747;48.628;9.058;2024-03-22T12:45:01;5.27;;;4.47;;
7410;SDS011;3747;48.628;9.058;2024-03-22T12:47:28;5.57;;;4.50;;
7410;SDS011;3747;48.628;9.058;2024-03-22T12:49:56;5.47;;;4.37;;
7410;SDS011;3747;48.628;9.058;2024-03-22T12:52:21;6.43;;;4.27;;
7410;SDS011;3747;48.628;9.058;2024-03-22T12:54:48;6.13;;;4.13;;
7410;SDS011;3747;48.628;9.058;2024-03-22T12:57:14;4.97;;;3.37;;
7410;SDS011;3747;48.628;9.058;2024-03-22T12:59:40;4.87;;;3.50;;
7410;SDS011;3747;48.628;9.058;2024-03-22T13:02:06;3.40;;;3.10;;
7410;SDS011;3747;48.628;9.058;2024-03-22T13:04:34;4.80;;;3.90;;
7410;SDS011;3747;48.628;9.058;2024-03-22T13:07:01;5.57;;;3.30;;
7410;SDS011;3747;48.628;9.058;2024-03-22T13:09:27;4.27;;;3.50;;
7410;SDS011;3747;48.628;9.058;2024-03-22T13:11:53;4.03;;;2.73;;
7410;SDS011;3747;48.628;9.058;2024-03-22T13:14:20;4.50;;;2.90;;
7410;SDS011;3747;48.628;9.058;2024-03-22T13:16:45;4.20;;;2.60;;
7410;SDS011;3747;48.628;9.058;2024-03-22T13:19:13;2.83;;;2.60;;
7410;SDS011;3747;48.628;9.058;2024-03-22T13:21:40;4.03;;;2.90;;
7410;SDS011;3747;48.628;9.058;2024-03-22T13:24:10;3.77;;;2.37;;
7410;SDS011;3747;48.628;9.058;2024-03-22T13:26:36;2.63;;;2.00;;
7410;SDS011;3747;48.628;9.058;2024-03-22T13:29:03;3.30;;;1.83;;
7410;SDS011;3747;48.628;9.058;2024-03-22T13:31:28;2.43;;;1.97;;
7410;SDS011;3747;48.628;9.058;2024-03-22T13:33:55;3.43;;;2.20;;
7410;SDS011;3747;48.628;9.058;2024-03-22T13:36:21;2.60;;;2.30;;
7410;SDS011;3747;48.628;9.058;2024-03-22T13:38:50;2.83;;;1.90;;
7410;SDS011;3747;48.628;9.058;2024-03-22T13:41:17;2.50;;;1.90;;
7410;SDS011;3747;48.628;9.058;2024-03-22T13:43:44;3.30;;;2.30;;
7410;SDS011;3747;48.628;9.058;2024-03-22T13:46:10;2.83;;;2.23;;
7410;SDS011;3747;48.628;9.058;2024-03-22T13:48:43;3.30;;;2.33;;
7410;SDS011;3747;48.628;9.058;2024-03-22T13:51:08;2.97;;;1.80;;
7410;SDS011;3747;48.628;9.058;2024-03-22T13:56:45;2.10;;;1.83;;
7410;SDS011;3747;48.628;9.058;2024-03-22T13:59:12;10.77;;;6.70;;
7410;SDS011;3747;48.628;9.058;2024-03-22T14:01:39;2.87;;;2.20;;
7410;SDS011;3747;48.628;9.058;2024-03-22T14:04:06;2.23;;;1.80;;
7410;SDS011;3747;48.628;9.058;2024-03-22T14:06:36;3.43;;;2.10;;
7410;SDS011;3747;48.628;9.058;2024-03-22T14:09:17;2.30;;;2.10;;
7410;SDS011;3747;48.628;9.058;2024-03-22T14:11:47;2.60;;;1.73;;
7410;SDS011;3747;48.628;9.058;2024-03-22T14:14:14;2.43;;;1.50;;
7410;SDS011;3747;48.628;9.058;2024-03-22T14:16:40;4.00;;;1.40;;
7410;SDS011;3747;48.628;9.058;2024-03-22T14:21:52;1.93;;;1.17;;
7410;SDS011;3747;48.628;9.058;2024-03-22T14:24:19;1.43;;;0.80;;
7410;SDS011;3747;48.628;9.058;2024-03-22T14:26:47;1.30;;;0.97;;
7410;SDS011;3747;48.628;9.058;2024-03-22T14:29:13;2.67;;;1.37;;
7410;SDS011;3747;48.628;9.058;2024-03-22T14:31:39;1.63;;;1.10;;
7410;SDS011;3747;48.628;9.058;2024-03-22T14:34:07;1.40;;;0.80;;
7410;SDS011;3747;48.628;9.058;2024-03-22T14:36:39;0.97;;;0.80;;
7410;SDS011;3747;48.628;9.058;2024-03-22T14:39:06;1.17;;;1.00;;
7410;SDS011;3747;48.628;9.058;2024-03-22T14:41:33;2.40;;;1.30;;
7410;SDS011;3747;48.628;9.058;2024-03-22T14:44:00;1.67;;;0.90;;
7410;SDS011;3747;48.628;9.058;2024-03-22T14:46:27;1.93;;;1.00;;
7410;SDS011;3747;48.628;9.058;2024-03-22T14:48:55;0.90;;;0.70;;
7410;SDS011;3747;48.628;9.058;2024-03-22T14:51:22;2.43;;;0.87;;
7410;SDS011;3747;48.628;9.058;2024-03-22T14:53:54;1.60;;;1.00;;
7410;SDS011;3747;48.628;9.058;2024-03-22T14:56:26;1.40;;;1.10;;
7410;SDS011;3747;48.628;9.058;2024-03-22T14:58:52;1.63;;;0.83;;
7410;SDS011;3747;48.628;9.058;2024-03-22T15:01:25;0.80;;;0.80;;
7410;SDS011;3747;48.628;9.058;2024-03-22T15:03:51;2.30;;;0.90;;
7410;SDS011;3747;48.628;9.058;2024-03-22T15:06:18;0.83;;;0.80;;
7410;SDS011;3747;48.628;9.058;2024-03-22T15:08:45;2.20;;;0.77;;
7410;SDS011;3747;48.628;9.058;2024-03-22T15:11:12;3.03;;;0.77;;
7410;SDS011;3747;48.628;9.058;2024-03-22T15:13:38;1.57;;;0.83;;
7410;SDS011;3747;48.628;9.058;2024-03-22T15:16:05;2.67;;;0.73;;
7410;SDS011;3747;48.628;9.058;2024-03-22T15:18:37;1.17;;;0.70;;
7410;SDS011;3747;48.628;9.058;2024-03-22T15:21:09;1.90;;;1.00;;
7410;SDS011;3747;48.628;9.058;2024-03-22T15:23:35;1.40;;;0.90;;